sensor_id;sensor_type;location;lat;lon;timestamp;P1;durP1;ratioP1;P2;durP2;ratioP2
7883;SDS011;3987;51.458;7.238;2023-05-07T00:01:35;6.33;;;6.03;;
7883;SDS011;3987;51.458;7.238;2023-05-07T00:16:35;7.40;;;7.10;;
7883;SDS011;3987;51.458;7.238;2023-05-07T00:31:36;7.43;;;6.90;;
7883;SDS011;3987;51.458;7.238;2023-05-07T00:46:36;10.23;;;9.53;;
7883;SDS011;3987;51.458;7.238;2023-05-07T01:01:38;9.60;;;9.00;;
7883;SDS011;3987;51.458;7.238;2023-05-07T01:16:38;11.23;;;10.30;;
7883;SDS011;3987;51.458;7.238;2023-05-07T01:31:42;10.93;;;10.00;;
7883;SDS011;3987;51.458;7.238;2023-05-07T01:46:43;10.33;;;9.73;;
7883;SDS011;3987;51.458;7.238;2023-05-07T02:01:43;10.20;;;9.53;;
7883;SDS011;3987;51.458;7.238;2023-05-07T02:16:45;12.90;;;12.00;;
7883;SDS011;3987;51.458;7.238;2023-05-07T02:31:48;15.80;;;14.57;;
7883;SDS011;3987;51.458;7.238;2023-05-07T02:46:51;16.97;;;15.53;;
7883;SDS011;3987;51.458;7.238;2023-05-07T03:01:51;14.10;;;13.30;;
7883;SDS011;3987;51.458;7.238;2023-05-07T03:16:52;13.40;;;12.40;;
7883;SDS011;3987;51.458;7.238;2023-05-07T03:31:53;13.67;;;12.67;;
7883;SDS011;3987;51.458;7.238;2023-05-07T03:46:53;14.93;;;13.93;;
7883;SDS011;3987;51.458;7.238;2023-05-07T04:01:54;18.93;;;17.23;;
7883;SDS011;3987;51.458;7.238;2023-05-07T04:16:58;23.80;;;21.40;;
7883;SDS011;3987;51.458;7.238;2023-05-07T04:32:00;25.63;;;23.10;;
7883;SDS011;3987;51.458;7.238;2023-05-07T04:47:01;26.13;;;23.43;;
7883;SDS011;3987;51.458;7.238;2023-05-07T05:02:02;24.77;;;22.23;;
7883;SDS011;3987;51.458;7.238;2023-05-07T05:17:04;21.50;;;19.80;;
7883;SDS011;3987;51.458;7.238;2023-05-07T05:32:05;19.63;;;17.97;;
7883;SDS011;3987;51.458;7.238;2023-05-07T05:47:07;12.47;;;11.67;;
7883;SDS011;3987;51.458;7.238;2023-05-07T06:02:08;9.70;;;9.00;;
7883;SDS011;3987;51.458;7.238;2023-05-07T06:17:09;6.23;;;5.97;;
7883;SDS011;3987;51.458;7.238;2023-05-07T06:32:10;5.43;;;5.20;;
7883;SDS011;3987;51.458;7.238;2023-05-07T06:47:13;4.23;;;4.03;;
7883;SDS011;3987;51.458;7.238;2023-05-07T07:02:15;3.00;;;2.97;;
7883;SDS011;3987;51.458;7.238;2023-05-07T07:17:16;2.97;;;2.87;;
7883;SDS011;3987;51.458;7.238;2023-05-07T07:32:17;2.50;;;2.40;;
7883;SDS011;3987;51.458;7.238;2023-05-07T07:47:17;2.00;;;2.00;;
7883;SDS011;3987;51.458;7.238;2023-05-07T08:02:19;2.20;;;2.20;;
7883;SDS011;3987;51.458;7.238;2023-05-07T08:17:20;3.00;;;2.90;;
7883;SDS011;3987;51.458;7.238;2023-05-07T08:32:23;4.03;;;3.83;;
7883;SDS011;3987;51.458;7.238;2023-05-07T08:47:23;3.53;;;3.40;;
7883;SDS011;3987;51.458;7.238;2023-05-07T09:02:29;3.10;;;3.10;;
7883;SDS011;3987;51.458;7.238;2023-05-07T09:17:30;3.57;;;3.47;;
7883;SDS011;3987;51.458;7.238;2023-05-07T09:32:32;3.60;;;3.50;;
7883;SDS011;3987;51.458;7.238;2023-05-07T09:47:35;6.33;;;6.03;;
7883;SDS011;3987;51.458;7.238;2023-05-07T10:02:37;4.90;;;4.80;;
7883;SDS011;3987;51.458;7.238;2023-05-07T10:17:46;4.03;;;3.93;;
7883;SDS011;3987;51.458;7.238;2023-05-07T10:32:51;3.30;;;3.20;;
7883;SDS011;3987;51.458;7.238;2023-05-07T11:03:08;2.23;;;2.07;;
7883;SDS011;3987;51.458;7.238;2023-05-07T11:18:45;3.30;;;3.10;;
7883;SDS011;3987;51.458;7.238;2023-05-07T11:33:59;4.10;;;4.00;;
7883;SDS011;3987;51.458;7.238;2023-05-07T11:49:00;6.90;;;6.40;;
7883;SDS011;3987;51.458;7.238;2023-05-07T12:04:02;6.17;;;6.00;;
7883;SDS011;3987;51.458;7.238;2023-05-07T12:19:03;7.07;;;6.87;;
7883;SDS011;3987;51.458;7.238;2023-05-07T12:34:03;6.27;;;5.87;;
7883;SDS011;3987;51.458;7.238;2023-05-07T12:49:04;8.03;;;7.70;;
7883;SDS011;3987;51.458;7.238;2023-05-07T13:04:04;5.20;;;5.10;;
7883;SDS011;3987;51.458;7.238;2023-05-07T13:19:05;5.20;;;5.10;;
7883;SDS011;3987;51.458;7.238;2023-05-07T13:34:06;5.10;;;4.90;;
7883;SDS011;3987;51.458;7.238;2023-05-07T13:49:06;4.50;;;4.10;;
7883;SDS011;3987;51.458;7.238;2023-05-07T14:04:06;4.63;;;4.33;;
7883;SDS011;3987;51.458;7.238;2023-05-07T14:19:07;4.82;;;4.70;;
7883;SDS011;3987;51.458;7.238;2023-05-07T14:34:08;5.13;;;4.90;;
7883;SDS011;3987;51.458;7.238;2023-05-07T14:49:08;5.87;;;5.67;;
7883;SDS011;3987;51.458;7.238;2023-05-07T15:04:16;7.47;;;7.07;;
7883;SDS011;3987;51.458;7.238;2023-05-07T15:19:17;7.57;;;7.27;;
7883;SDS011;3987;51.458;7.238;2023-05-07T15:34:17;7.00;;;6.70;;
7883;SDS011;3987;51.458;7.238;2023-05-07T15:49:18;4.03;;;3.93;;
7883;SDS011;3987;51.458;7.238;2023-05-07T16:04:18;3.07;;;3.07;;
7883;SDS011;3987;51.458;7.238;2023-05-07T16:19:19;3.13;;;3.03;;
7883;SDS011;3987;51.458;7.238;2023-05-07T16:34:19;2.60;;;2.60;;
7883;SDS011;3987;51.458;7.238;2023-05-07T16:49:20;3.50;;;3.40;;
7883;SDS011;3987;51.458;7.238;2023-05-07T17:04:21;4.10;;;3.90;;
7883;SDS011;3987;51.458;7.238;2023-05-07T17:19:21;3.77;;;3.67;;
7883;SDS011;3987;51.458;7.238;2023-05-07T17:34:22;3.43;;;3.27;;
7883;SDS011;3987;51.458;7.238;2023-05-07T17:49:22;3.70;;;3.60;;
7883;SDS011;3987;51.458;7.238;2023-05-07T18:04:22;4.10;;;3.93;;
7883;SDS011;3987;51.458;7.238;2023-05-07T18:19:25;4.40;;;4.20;;
7883;SDS011;3987;51.458;7.238;2023-05-07T18:34:26;4.00;;;3.80;;
7883;SDS011;3987;51.458;7.238;2023-05-07T18:49:26;3.60;;;3.40;;
7883;SDS011;3987;51.458;7.238;2023-05-07T19:04:27;3.37;;;3.37;;
7883;SDS011;3987;51.458;7.238;2023-05-07T19:19:28;3.80;;;3.70;;
7883;SDS011;3987;51.458;7.238;2023-05-07T19:34:29;4.37;;;4.17;;
7883;SDS011;3987;51.458;7.238;2023-05-07T19:49:29;4.70;;;4.60;;
7883;SDS011;3987;51.458;7.238;2023-05-07T20:04:30;4.43;;;4.33;;
7883;SDS011;3987;51.458;7.238;2023-05-07T20:19:32;6.13;;;5.70;;
7883;SDS011;3987;51.458;7.238;2023-05-07T20:34:32;9.10;;;8.60;;
7883;SDS011;3987;51.458;7.238;2023-05-07T20:49:33;12.07;;;11.10;;
7883;SDS011;3987;51.458;7.238;2023-05-07T21:04:33;13.33;;;12.43;;
7883;SDS011;3987;51.458;7.238;2023-05-07T21:19:34;18.67;;;17.27;;
7883;SDS011;3987;51.458;7.238;2023-05-07T21:34:34;18.10;;;16.60;;
7883;SDS011;3987;51.458;7.238;2023-05-07T21:49:35;20.50;;;18.73;;
7883;SDS011;3987;51.458;7.238;2023-05-07T22:04:35;21.00;;;19.23;;
7883;SDS011;3987;51.458;7.238;2023-05-07T22:19:36;22.23;;;20.13;;
7883;SDS011;3987;51.458;7.238;2023-05-07T22:34:36;21.57;;;19.57;;
7883;SDS011;3987;51.458;7.238;2023-05-07T22:49:36;23.80;;;21.50;;
7883;SDS011;3987;51.458;7.238;2023-05-07T23:04:37;22.50;;;20.20;;
7883;SDS011;3987;51.458;7.238;2023-05-07T23:19:37;22.90;;;20.90;;
7883;SDS011;3987;51.458;7.238;2023-05-07T23:34:38;23.60;;;21.30;;
7883;SDS011;3987;51.458;7.238;2023-05-07T23:49:38;24.67;;;22.37;;
